Time;durP1;ratioP1;P1;durP2;ratioP2;P2;SDS_P1;SDS_P2;PMS_P1;PMS_P2;Temp;Humidity;BMP_temperature;BMP_pressure;BME280_temperature;BME280_humidity;BME280_pressure;Samples;Min_cycle;Max_cycle;Signal;HPM_P1;HPM_P2
2024/03/05 00:01:35;;;;;;;7.28;3.42;;;5.40;99.90;;;;;;5007023;28;20496;-91
2024/03/05 00:04:01;;;;;;;6.95;3.60;;;5.30;99.90;;;;;;5026703;28;20009;-91
2024/03/05 00:06:29;;;;;;;7.80;3.15;;;5.30;99.90;;;;;;5006168;28;20034;-90
2024/03/05 00:08:54;;;;;;;5.07;3.60;;;5.40;99.90;;;;;;5007807;28;20042;-91
2024/03/05 00:11:21;;;;;;;8.70;3.50;;;5.30;99.90;;;;;;5006038;28;20033;-92
2024/03/05 00:13:47;;;;;;;7.90;3.25;;;5.30;99.90;;;;;;5006088;28;20018;-91
2024/03/05 00:16:13;;;;;;;7.18;3.35;;;5.30;99.90;;;;;;5008005;28;20025;-90
2024/03/05 00:18:38;;;;;;;4.80;3.30;;;5.30;99.90;;;;;;5007699;28;20018;-92
2024/03/05 00:21:04;;;;;;;6.85;3.15;;;5.40;99.90;;;;;;5006464;28;20036;-91
2024/03/05 00:23:30;;;;;;;5.00;3.42;;;5.30;99.90;;;;;;5025035;28;20037;-90
2024/03/05 00:25:56;;;;;;;4.53;2.90;;;5.30;99.90;;;;;;5025888;28;20025;-91
2024/03/05 00:28:24;;;;;;;5.15;3.17;;;5.40;99.90;;;;;;5005718;28;20034;-93
2024/03/05 00:30:50;;;;;;;7.03;3.38;;;5.40;99.90;;;;;;5020956;28;20028;-91
2024/03/05 00:33:16;;;;;;;5.03;3.13;;;5.40;99.90;;;;;;5026180;28;20108;-91
2024/03/05 00:35:42;;;;;;;6.82;2.92;;;5.40;99.90;;;;;;5003601;28;20022;-91
2024/03/05 00:38:08;;;;;;;9.80;3.17;;;5.40;99.90;;;;;;5007903;28;20061;-89
2024/03/05 00:40:34;;;;;;;6.78;3.38;;;5.40;99.90;;;;;;5006467;28;20034;-91
2024/03/05 00:43:00;;;;;;;9.13;3.78;;;5.40;99.90;;;;;;5006230;28;20026;-90
2024/03/05 00:45:26;;;;;;;4.28;2.85;;;5.40;99.90;;;;;;5025123;28;20493;-91
2024/03/05 00:47:51;;;;;;;4.10;2.97;;;5.40;99.90;;;;;;5022856;28;20483;-91
2024/03/05 00:50:17;;;;;;;7.70;3.50;;;5.40;99.90;;;;;;5008751;28;20025;-89
2024/03/05 00:52:43;;;;;;;7.80;2.90;;;5.40;99.90;;;;;;5006867;28;20502;-90
2024/03/05 00:55:09;;;;;;;6.25;3.42;;;5.40;99.90;;;;;;5025687;28;20018;-89
2024/03/05 00:57:36;;;;;;;6.93;3.42;;;5.40;99.90;;;;;;5007267;28;20052;-92
2024/03/05 01:00:03;;;;;;;6.32;3.35;;;5.40;99.90;;;;;;5007384;28;20068;-88
2024/03/05 01:02:28;;;;;;;6.32;4.00;;;5.40;99.90;;;;;;5002552;28;20116;-90
2024/03/05 01:04:54;;;;;;;10.55;4.30;;;5.40;99.90;;;;;;5026237;28;20045;-90
2024/03/05 01:07:20;;;;;;;8.00;4.38;;;5.40;99.90;;;;;;5027380;28;20033;-91
2024/03/05 01:09:47;;;;;;;11.68;5.07;;;5.40;99.90;;;;;;5008192;28;20028;-90
2024/03/05 01:12:13;;;;;;;9.45;5.40;;;5.40;99.90;;;;;;5025089;28;20025;-90
2024/03/05 01:14:40;;;;;;;8.07;5.13;;;5.40;99.90;;;;;;5022771;28;20025;-90
2024/03/05 01:17:08;;;;;;;6.55;4.95;;;5.40;99.90;;;;;;5025207;28;20025;-89
2024/03/05 01:19:36;;;;;;;8.85;6.03;;;5.40;99.90;;;;;;5004751;28;20028;-90
2024/03/05 01:22:02;;;;;;;9.40;5.68;;;5.40;99.90;;;;;;5024268;28;20026;-89
2024/03/05 01:24:28;;;;;;;10.65;5.57;;;5.50;99.90;;;;;;5007531;28;20387;-90
2024/03/05 01:26:54;;;;;;;11.65;6.57;;;5.40;99.90;;;;;;5023486;28;20026;-91
2024/03/05 01:29:21;;;;;;;12.43;5.88;;;5.50;99.90;;;;;;5006064;28;20025;-89
2024/03/05 01:31:56;;;;;;;11.95;6.15;;;5.50;99.90;;;;;;5007190;28;20040;-92
2024/03/05 01:34:22;;;;;;;12.10;6.55;;;5.40;99.90;;;;;;5002337;28;20040;-92
2024/03/05 01:36:47;;;;;;;12.05;6.82;;;5.50;99.90;;;;;;5023912;28;20553;-93
2024/03/05 01:39:13;;;;;;;9.70;6.95;;;5.40;99.90;;;;;;5003802;28;20029;-92
2024/03/05 01:41:39;;;;;;;9.90;7.53;;;5.50;99.90;;;;;;5023644;28;20115;-91
2024/03/05 01:44:04;;;;;;;10.82;7.05;;;5.50;99.90;;;;;;5022563;28;20070;-90
2024/03/05 01:46:30;;;;;;;13.50;6.75;;;5.50;99.90;;;;;;5008086;28;20424;-91
2024/03/05 01:48:57;;;;;;;7.78;6.93;;;5.50;99.90;;;;;;5004718;28;20104;-92
2024/03/05 01:51:24;;;;;;;8.90;7.13;;;5.50;99.90;;;;;;5022538;28;20017;-91
2024/03/05 01:53:51;;;;;;;9.82;7.47;;;5.50;99.90;;;;;;5009651;28;20040;-90
2024/03/05 01:56:17;;;;;;;12.18;8.20;;;5.50;99.90;;;;;;5010606;28;20021;-90
2024/03/05 01:58:44;;;;;;;12.65;7.85;;;5.50;99.90;;;;;;5030996;28;20028;-92
2024/03/05 02:01:14;;;;;;;11.73;7.95;;;5.50;99.90;;;;;;5032313;28;20555;-90
2024/03/05 02:03:40;;;;;;;16.92;9.90;;;5.50;99.90;;;;;;5031354;28;20108;-90
2024/03/05 02:06:08;;;;;;;11.15;8.82;;;5.50;99.90;;;;;;5012616;28;20041;-91
2024/03/05 02:08:37;;;;;;;17.42;9.85;;;5.50;99.90;;;;;;5026863;28;20038;-91
2024/03/05 02:11:03;;;;;;;16.35;10.02;;;5.50;99.90;;;;;;5031518;28;20014;-91
2024/03/05 02:13:28;;;;;;;15.73;9.63;;;5.50;99.90;;;;;;5031224;28;20026;-90
2024/03/05 02:15:54;;;;;;;23.30;10.25;;;5.50;99.90;;;;;;5013949;28;20089;-90
2024/03/05 02:18:20;;;;;;;17.02;10.52;;;5.50;99.90;;;;;;5027115;28;20029;-89
2024/03/05 02:20:46;;;;;;;22.17;11.18;;;5.50;99.90;;;;;;5011018;28;20025;-91
2024/03/05 02:23:12;;;;;;;19.50;10.93;;;5.50;99.90;;;;;;5025001;28;20040;-91
2024/03/05 02:25:37;;;;;;;17.25;11.32;;;5.50;99.90;;;;;;5011824;28;20018;-92
2024/03/05 02:28:04;;;;;;;16.30;11.30;;;5.50;99.90;;;;;;5010961;28;20040;-91
2024/03/05 02:30:30;;;;;;;17.95;11.27;;;5.50;99.90;;;;;;5010287;28;20486;-89
2024/03/05 02:32:58;;;;;;;20.65;10.85;;;5.50;99.90;;;;;;5026748;28;20032;-91
2024/03/05 02:35:23;;;;;;;20.80;12.18;;;5.50;99.90;;;;;;5007254;28;20547;-91
2024/03/05 02:37:49;;;;;;;15.30;10.98;;;5.50;99.90;;;;;;5005074;28;20057;-90
2024/03/05 02:40:15;;;;;;;22.40;12.98;;;5.50;99.90;;;;;;5026205;28;20109;-89
2024/03/05 02:42:42;;;;;;;17.10;10.55;;;5.50;99.90;;;;;;5038368;28;20029;-92
2024/03/05 02:45:10;;;;;;;19.40;11.30;;;5.50;99.90;;;;;;5043854;28;20045;-90
2024/03/05 02:47:40;;;;;;;17.77;11.15;;;5.50;99.90;;;;;;5043563;28;20029;-91
2024/03/05 02:50:09;;;;;;;19.83;12.02;;;5.60;99.90;;;;;;5020036;28;20030;-91
2024/03/05 02:52:35;;;;;;;24.08;11.93;;;5.60;99.90;;;;;;5015055;28;20037;-90
2024/03/05 02:55:01;;;;;;;18.80;12.35;;;5.60;99.90;;;;;;5043296;28;20026;-93
2024/03/05 02:57:28;;;;;;;17.10;11.52;;;5.60;99.90;;;;;;5014706;28;20454;-91
2024/03/05 02:59:53;;;;;;;17.27;11.07;;;5.60;99.90;;;;;;5026382;28;20057;-90
2024/03/05 03:02:20;;;;;;;18.42;10.68;;;5.60;99.90;;;;;;5033180;28;20022;-90
2024/03/05 03:04:47;;;;;;;22.10;11.63;;;5.60;99.90;;;;;;5018661;28;20034;-91
2024/03/05 03:07:13;;;;;;;20.70;11.50;;;5.60;99.90;;;;;;5038173;28;20077;-91
2024/03/05 03:09:38;;;;;;;22.60;11.20;;;5.60;99.90;;;;;;5014398;28;20080;-91
2024/03/05 03:12:05;;;;;;;17.38;11.48;;;5.60;99.90;;;;;;5013106;28;20029;-91
2024/03/05 03:14:31;;;;;;;20.13;11.57;;;5.60;99.90;;;;;;5026407;28;20018;-92
2024/03/05 03:16:57;;;;;;;19.27;12.60;;;5.60;99.90;;;;;;5010999;28;20026;-92
2024/03/05 03:19:23;;;;;;;23.88;11.85;;;5.60;99.90;;;;;;5024947;28;20101;-90
2024/03/05 03:21:49;;;;;;;24.90;11.90;;;5.60;99.90;;;;;;5007446;28;20483;-91
2024/03/05 03:24:15;;;;;;;24.45;12.52;;;5.60;99.90;;;;;;5025941;28;20030;-90
2024/03/05 03:26:41;;;;;;;25.00;13.15;;;5.60;99.90;;;;;;5008632;28;20029;-90
2024/03/05 03:29:11;;;;;;;23.45;13.27;;;5.60;99.90;;;;;;5009867;28;20092;-91
2024/03/05 03:31:49;;;;;;;24.15;12.07;;;5.60;99.90;;;;;;5022701;28;20092;-91
2024/03/05 03:34:16;;;;;;;18.48;12.63;;;5.60;99.90;;;;;;5007196;28;20542;-90
2024/03/05 03:36:42;;;;;;;22.60;12.40;;;5.60;99.90;;;;;;5024662;28;20057;-91
2024/03/05 03:39:11;;;;;;;23.20;12.50;;;5.60;99.90;;;;;;5009910;28;20029;-90
2024/03/05 03:41:40;;;;;;;25.90;13.82;;;5.60;99.90;;;;;;5008617;28;20029;-91
2024/03/05 03:44:06;;;;;;;26.20;12.10;;;5.60;99.90;;;;;;5030262;28;20041;-90
2024/03/05 03:46:34;;;;;;;25.90;12.73;;;5.60;99.90;;;;;;5007552;28;20356;-90
2024/03/05 03:49:02;;;;;;;23.80;12.85;;;5.60;99.90;;;;;;5010575;28;20030;-90
2024/03/05 03:51:29;;;;;;;26.13;12.38;;;5.60;99.90;;;;;;5025074;28;20140;-90
2024/03/05 03:53:54;;;;;;;29.42;12.48;;;5.60;99.90;;;;;;5010178;28;20053;-90
2024/03/05 03:56:20;;;;;;;18.88;12.05;;;5.60;99.90;;;;;;5011101;28;20021;-89
2024/03/05 03:58:46;;;;;;;21.65;11.82;;;5.70;99.90;;;;;;5007824;28;20033;-91
2024/03/05 04:01:13;;;;;;;21.38;12.02;;;5.70;99.90;;;;;;5007313;28;20029;-90
2024/03/05 04:03:39;;;;;;;26.40;12.00;;;5.70;99.90;;;;;;5007884;28;20392;-90
2024/03/05 04:06:05;;;;;;;25.23;12.85;;;5.70;99.90;;;;;;5026404;28;20044;-90
2024/03/05 04:08:31;;;;;;;24.63;12.35;;;5.70;99.90;;;;;;5006762;28;20045;-90
2024/03/05 04:10:57;;;;;;;23.75;12.52;;;5.70;99.90;;;;;;5008287;28;20018;-90
2024/03/05 04:13:23;;;;;;;25.10;13.27;;;5.70;99.90;;;;;;5023562;28;20083;-91
2024/03/05 04:15:50;;;;;;;22.90;13.23;;;5.70;99.90;;;;;;5025898;28;20013;-90
2024/03/05 04:18:16;;;;;;;27.05;13.23;;;5.70;99.90;;;;;;5024830;28;20022;-91
2024/03/05 04:20:41;;;;;;;23.15;12.32;;;5.70;99.90;;;;;;5007455;28;20043;-90
2024/03/05 04:23:09;;;;;;;30.60;13.43;;;5.70;99.90;;;;;;5023577;28;20175;-90
2024/03/05 04:25:39;;;;;;;30.08;13.52;;;5.70;99.90;;;;;;5025786;28;20073;-92
2024/03/05 04:28:10;;;;;;;33.75;13.02;;;5.70;99.90;;;;;;5010024;28;20047;-92
2024/03/05 04:30:38;;;;;;;27.80;13.90;;;5.70;99.90;;;;;;5013090;28;20037;-90
2024/03/05 04:33:05;;;;;;;24.35;11.95;;;5.70;99.90;;;;;;5011921;28;20045;-91
2024/03/05 04:35:31;;;;;;;28.25;11.82;;;5.70;99.90;;;;;;5011756;28;20025;-91
2024/03/05 04:37:57;;;;;;;38.55;12.90;;;5.70;99.90;;;;;;5024813;28;20026;-91
2024/03/05 04:40:23;;;;;;;25.60;12.00;;;5.70;99.90;;;;;;5024437;28;20104;-90
2024/03/05 04:42:49;;;;;;;19.63;10.93;;;5.70;99.90;;;;;;5008061;28;20037;-90
2024/03/05 04:45:15;;;;;;;22.00;11.65;;;5.70;99.90;;;;;;5008918;28;20087;-91
2024/03/05 04:47:41;;;;;;;26.70;11.90;;;5.70;99.90;;;;;;5008148;28;20034;-91
2024/03/05 04:50:09;;;;;;;23.00;11.55;;;5.70;99.90;;;;;;5007011;28;20025;-90
2024/03/05 04:52:35;;;;;;;24.52;10.90;;;5.70;99.90;;;;;;5005528;28;20040;-90
2024/03/05 04:55:01;;;;;;;26.10;10.63;;;5.70;99.90;;;;;;5023042;28;20030;-88
2024/03/05 04:57:27;;;;;;;21.73;10.50;;;5.70;99.90;;;;;;5004009;28;20056;-88
2024/03/05 04:59:52;;;;;;;29.35;10.40;;;5.70;99.90;;;;;;5024949;28;20025;-89
2024/03/05 05:02:18;;;;;;;17.05;8.98;;;5.70;99.90;;;;;;5006573;28;20049;-89
2024/03/05 05:04:44;;;;;;;20.52;9.73;;;5.70;99.90;;;;;;5005417;28;20037;-91
2024/03/05 05:07:10;;;;;;;18.63;9.45;;;5.70;99.90;;;;;;5004980;28;20026;-90
2024/03/05 05:09:40;;;;;;;22.85;9.40;;;5.70;99.90;;;;;;5005041;28;20041;-89
2024/03/05 05:12:06;;;;;;;29.55;9.30;;;5.70;99.90;;;;;;5030399;28;20084;-91
2024/03/05 05:14:32;;;;;;;28.33;9.95;;;5.70;99.90;;;;;;5015999;28;20041;-90
2024/03/05 05:21:59;;;;;;;18.13;8.70;;;5.70;99.90;;;;;;5256654;23;20049;-88
2024/03/05 05:24:25;;;;;;;19.48;9.40;;;5.70;99.90;;;;;;5003430;28;20041;-88
2024/03/05 05:26:51;;;;;;;23.33;8.38;;;5.70;99.90;;;;;;5000451;28;20018;-90
2024/03/05 05:29:16;;;;;;;21.02;9.95;;;5.80;99.90;;;;;;4998750;28;20113;-89
2024/03/05 05:31:43;;;;;;;15.68;8.40;;;5.80;99.90;;;;;;4998989;28;20030;-89
2024/03/05 05:34:09;;;;;;;19.58;8.48;;;5.80;99.90;;;;;;5016482;28;20018;-88
2024/03/05 05:36:34;;;;;;;19.17;8.57;;;5.80;99.90;;;;;;4998480;28;20053;-90
2024/03/05 05:39:00;;;;;;;20.88;8.65;;;5.80;99.90;;;;;;4997474;28;20390;-88
2024/03/05 05:41:26;;;;;;;23.58;9.10;;;5.80;99.90;;;;;;5014025;28;20033;-89
2024/03/05 05:43:52;;;;;;;25.33;9.77;;;5.80;99.90;;;;;;5009361;28;20411;-89
2024/03/05 05:46:21;;;;;;;17.38;8.82;;;5.80;99.90;;;;;;5014878;28;20109;-89
2024/03/05 05:48:51;;;;;;;25.45;10.40;;;5.80;99.90;;;;;;5016658;28;20077;-89
2024/03/05 05:51:18;;;;;;;20.50;8.68;;;5.80;99.90;;;;;;5017877;28;20119;-89
2024/03/05 05:53:44;;;;;;;21.17;11.25;;;5.80;99.90;;;;;;5004654;28;20022;-89
2024/03/05 05:56:10;;;;;;;24.45;10.30;;;5.80;99.90;;;;;;5025478;28;20029;-88
2024/03/05 05:58:36;;;;;;;21.77;9.60;;;5.80;99.90;;;;;;5017186;28;20503;-88
2024/03/05 06:01:05;;;;;;;20.83;9.95;;;5.80;99.90;;;;;;5014199;28;20029;-89
2024/03/05 06:03:31;;;;;;;19.67;10.23;;;5.80;99.90;;;;;;5014794;28;20065;-89
2024/03/05 06:05:57;;;;;;;21.70;10.20;;;5.80;99.90;;;;;;5014809;28;20470;-89
2024/03/05 06:08:23;;;;;;;22.05;10.75;;;5.80;99.90;;;;;;5001691;28;20040;-88
2024/03/05 06:10:49;;;;;;;46.17;12.25;;;5.80;99.90;;;;;;5001387;28;20030;-87
2024/03/05 06:13:15;;;;;;;12.80;7.97;;;5.80;99.90;;;;;;4997781;28;20089;-90
2024/03/05 06:15:41;;;;;;;22.23;10.95;;;5.80;99.90;;;;;;4998058;28;20029;-89
2024/03/05 06:18:06;;;;;;;21.35;10.52;;;5.80;99.90;;;;;;5014611;28;20026;-89
2024/03/05 06:20:32;;;;;;;13.32;8.60;;;5.70;99.90;;;;;;5014171;28;20647;-90
2024/03/05 06:23:00;;;;;;;20.05;10.32;;;5.80;99.90;;;;;;5016491;28;20046;-88
2024/03/05 06:25:27;;;;;;;25.38;11.85;;;5.70;99.90;;;;;;5001570;28;20037;-91
2024/03/05 06:27:53;;;;;;;14.93;8.23;;;5.70;99.90;;;;;;5000991;28;20053;-90
2024/03/05 06:30:18;;;;;;;25.70;11.63;;;5.70;99.90;;;;;;4999898;28;20029;-90
2024/03/05 06:32:48;;;;;;;22.10;12.25;;;5.80;99.90;;;;;;5000527;28;20026;-89
2024/03/05 06:35:19;;;;;;;22.40;12.85;;;5.70;99.90;;;;;;4999021;28;20025;-92
2024/03/05 06:37:46;;;;;;;;;;;5.80;99.90;;;;;;5015986;28;20494;-90
2024/03/05 06:40:13;;;;;;;18.58;11.25;;;5.70;99.90;;;;;;5017230;28;19905;-89
2024/03/05 06:42:43;;;;;;;25.85;12.57;;;5.70;99.90;;;;;;4999675;28;20034;-89
2024/03/05 06:45:09;;;;;;;;;;;5.70;99.90;;;;;;5000385;28;20059;-88
2024/03/05 06:47:46;;;;;;;23.77;12.32;;;5.70;99.90;;;;;;5017326;28;19906;-90
2024/03/05 06:50:22;;;;;;;20.88;10.45;;;5.70;99.90;;;;;;5017436;28;20079;-90
2024/03/05 06:58:17;;;;;;;28.42;12.60;;;5.70;99.90;;;;;;5011977;28;20033;-91
2024/03/05 07:00:44;;;;;;;27.38;13.15;;;5.70;99.90;;;;;;4999267;28;20022;-90
2024/03/05 07:03:12;;;;;;;21.20;10.70;;;5.70;99.90;;;;;;5016697;28;20033;-90
2024/03/05 07:05:38;;;;;;;22.30;12.75;;;5.70;99.90;;;;;;4998862;28;20022;-89
2024/03/05 07:08:05;;;;;;;29.25;12.02;;;5.70;99.90;;;;;;4998958;28;20075;-89
2024/03/05 07:10:33;;;;;;;24.88;12.95;;;5.70;99.90;;;;;;4995966;28;20061;-89
2024/03/05 07:12:59;;;;;;;28.70;12.85;;;5.70;99.90;;;;;;4998330;28;20083;-90
2024/03/05 07:15:25;;;;;;;31.75;14.65;;;5.70;99.90;;;;;;5016253;28;20594;-89
2024/03/05 07:17:51;;;;;;;20.70;11.27;;;5.70;99.90;;;;;;4996140;28;20104;-89
2024/03/05 07:20:22;;;;;;;29.70;13.15;;;5.70;99.90;;;;;;4999271;28;20390;-89
2024/03/05 07:22:49;;;;;;;25.73;13.65;;;5.70;99.90;;;;;;4998045;28;20065;-89
2024/03/05 07:25:15;;;;;;;23.92;14.15;;;5.70;99.90;;;;;;4998790;28;20026;-89
2024/03/05 07:27:45;;;;;;;17.75;9.98;;;5.70;99.90;;;;;;4994807;28;20032;-85
2024/03/05 07:30:18;;;;;;;25.55;12.45;;;5.70;99.90;;;;;;4994818;28;20033;-89
2024/03/05 07:32:47;;;;;;;25.58;12.80;;;5.70;99.90;;;;;;4994410;28;20057;-90
2024/03/05 07:35:15;;;;;;;25.67;13.40;;;5.70;99.90;;;;;;4997068;28;20026;-88
2024/03/05 07:37:44;;;;;;;28.33;12.38;;;5.80;99.90;;;;;;4995775;28;20065;-89
2024/03/05 07:40:17;;;;;;;28.90;13.70;;;5.80;99.90;;;;;;5015397;28;20164;-89
2024/03/05 07:42:54;;;;;;;28.00;14.18;;;5.80;99.90;;;;;;5015859;28;20116;-90
2024/03/05 07:45:21;;;;;;;24.30;13.75;;;5.90;99.90;;;;;;4995734;28;20025;-90
2024/03/05 07:47:48;;;;;;;20.88;12.93;;;5.90;99.90;;;;;;4997833;28;20018;-89
2024/03/05 07:50:15;;;;;;;27.35;13.85;;;5.90;99.90;;;;;;5012910;28;20493;-89
2024/03/05 07:52:45;;;;;;;25.35;11.93;;;5.90;99.90;;;;;;4997474;28;20022;-89
2024/03/05 07:55:17;;;;;;;21.05;11.25;;;5.90;99.90;;;;;;5014695;28;20129;-90
2024/03/05 07:57:44;;;;;;;25.67;12.48;;;5.90;99.90;;;;;;5015511;28;20108;-90
2024/03/05 08:00:14;;;;;;;17.88;9.13;;;5.90;99.90;;;;;;4995421;28;20025;-90
2024/03/05 08:02:45;;;;;;;26.67;12.20;;;6.00;99.90;;;;;;4998760;28;20096;-89
2024/03/05 08:05:18;;;;;;;27.95;12.98;;;6.00;99.90;;;;;;4997303;28;20497;-89
2024/03/05 08:07:45;;;;;;;23.88;13.32;;;6.00;99.90;;;;;;4997154;28;20030;-89
2024/03/05 08:10:12;;;;;;;18.25;10.88;;;6.00;99.90;;;;;;5015294;28;20101;-89
2024/03/05 08:12:44;;;;;;;22.67;11.75;;;6.00;99.90;;;;;;4997701;28;20026;-89
2024/03/05 08:15:15;;;;;;;30.80;12.90;;;6.10;99.90;;;;;;5014886;28;20037;-88
2024/03/05 08:17:48;;;;;;;25.77;12.68;;;6.10;99.90;;;;;;4996478;28;20025;-89
2024/03/05 08:20:14;;;;;;;23.50;12.13;;;6.10;99.90;;;;;;5006286;28;20025;-87
2024/03/05 08:22:41;;;;;;;20.45;11.43;;;6.20;99.90;;;;;;4993676;28;20123;-89
2024/03/05 08:25:09;;;;;;;27.30;14.95;;;6.20;99.90;;;;;;4984991;28;20022;-88
2024/03/05 08:27:38;;;;;;;24.38;13.38;;;6.20;99.90;;;;;;4987460;28;20076;-88
2024/03/05 08:30:09;;;;;;;34.70;16.25;;;6.30;99.90;;;;;;4991284;28;20117;-88
2024/03/05 08:32:35;;;;;;;;;;;6.30;99.90;;;;;;4990367;28;20031;-88
2024/03/05 08:35:01;;;;;;;27.10;12.93;;;6.30;99.90;;;;;;4992256;28;19910;-89
2024/03/05 08:37:27;;;;;;;54.58;24.17;;;6.30;99.90;;;;;;4993938;28;20023;-89
2024/03/05 08:39:52;;;;;;;29.38;12.70;;;6.30;99.90;;;;;;4992240;28;20025;-89
2024/03/05 08:42:18;;;;;;;28.60;15.10;;;6.40;99.90;;;;;;4993975;28;20033;-90
2024/03/05 08:44:44;;;;;;;28.65;11.95;;;6.40;99.90;;;;;;4992951;28;20088;-89
2024/03/05 08:47:12;;;;;;;21.55;9.93;;;6.50;99.90;;;;;;4995565;28;20034;-89
2024/03/05 08:49:38;;;;;;;26.85;11.80;;;6.50;99.90;;;;;;4994171;28;20022;-89
2024/03/05 08:52:04;;;;;;;29.30;13.70;;;6.50;99.90;;;;;;4993686;28;20033;-90
2024/03/05 08:54:31;;;;;;;28.65;12.25;;;6.60;99.90;;;;;;4992398;28;20142;-88
2024/03/05 08:57:00;;;;;;;22.75;11.65;;;6.60;99.90;;;;;;4993874;28;20845;-89
2024/03/05 08:59:26;;;;;;;21.13;12.55;;;6.60;99.90;;;;;;4993010;28;20030;-90
2024/03/05 09:01:55;;;;;;;26.92;12.32;;;6.60;99.90;;;;;;4992833;28;20062;-89
2024/03/05 09:04:21;;;;;;;24.58;12.32;;;6.70;99.90;;;;;;4992125;28;20033;-90
2024/03/05 09:06:48;;;;;;;33.53;13.10;;;6.70;99.90;;;;;;4993412;28;20030;-91
2024/03/05 09:09:13;;;;;;;29.88;12.50;;;6.80;99.90;;;;;;4991963;28;20037;-91
2024/03/05 09:11:39;;;;;;;28.05;11.88;;;6.80;99.90;;;;;;4991512;28;20026;-88
2024/03/05 09:14:05;;;;;;;29.55;12.45;;;6.80;99.90;;;;;;4987125;28;20146;-90
2024/03/05 09:16:31;;;;;;;34.08;13.15;;;6.90;99.90;;;;;;4989079;28;20014;-91
2024/03/05 09:18:57;;;;;;;32.58;11.77;;;6.90;99.90;;;;;;4999696;28;20030;-90
2024/03/05 09:21:24;;;;;;;25.65;11.63;;;7.00;99.90;;;;;;4994763;28;20061;-90
2024/03/05 09:23:50;;;;;;;22.67;10.70;;;7.00;99.90;;;;;;5008671;28;20478;-89
2024/03/05 09:26:16;;;;;;;20.17;9.30;;;7.10;99.90;;;;;;4992221;28;20029;-90
2024/03/05 09:28:43;;;;;;;18.77;9.18;;;7.10;99.90;;;;;;5012947;28;20547;-90
2024/03/05 09:31:09;;;;;;;22.80;8.73;;;7.10;99.90;;;;;;5021365;28;20093;-88
2024/03/05 09:33:35;;;;;;;23.83;9.88;;;7.10;99.90;;;;;;5006875;28;20025;-90
2024/03/05 09:36:04;;;;;;;19.42;8.65;;;7.20;99.90;;;;;;5023554;28;20471;-90
2024/03/05 09:38:31;;;;;;;17.67;8.93;;;7.30;99.90;;;;;;5018039;28;20118;-91
2024/03/05 09:40:57;;;;;;;22.52;8.00;;;7.40;99.90;;;;;;5013112;28;20057;-90
2024/03/05 09:43:25;;;;;;;16.90;8.70;;;7.50;99.90;;;;;;5012065;28;20041;-88
2024/03/05 09:45:51;;;;;;;20.65;8.77;;;7.50;99.90;;;;;;5010344;28;20025;-88
2024/03/05 09:48:19;;;;;;;18.42;8.25;;;7.60;99.90;;;;;;5012916;28;20026;-90
2024/03/05 09:50:49;;;;;;;17.23;7.45;;;7.60;99.90;;;;;;5012564;28;20022;-91
2024/03/05 09:53:15;;;;;;;15.05;6.50;;;7.50;99.90;;;;;;4994958;28;20320;-91
2024/03/05 09:55:41;;;;;;;16.67;8.23;;;7.60;99.90;;;;;;4993039;28;20030;-89
2024/03/05 09:58:11;;;;;;;16.85;6.55;;;7.60;99.90;;;;;;4995200;28;20038;-88
2024/03/05 10:00:37;;;;;;;16.20;6.90;;;7.70;99.90;;;;;;5011570;28;20033;-91
2024/03/05 10:03:03;;;;;;;15.98;6.78;;;7.70;99.90;;;;;;4994563;28;20128;-93
2024/03/05 10:05:30;;;;;;;17.73;6.90;;;7.80;99.90;;;;;;5011513;28;20014;-91
2024/03/05 10:07:56;;;;;;;13.23;5.88;;;7.90;99.90;;;;;;4992882;28;20030;-91
2024/03/05 10:10:22;;;;;;;14.63;6.63;;;7.90;99.90;;;;;;5011611;28;20044;-90
2024/03/05 10:12:50;;;;;;;14.55;5.78;;;7.90;99.90;;;;;;4993922;28;20026;-90
2024/03/05 10:15:25;;;;;;;15.43;7.03;;;8.00;99.90;;;;;;5009937;28;20069;-89
2024/03/05 10:17:52;;;;;;;15.77;5.30;;;8.20;99.90;;;;;;5008976;28;20041;-89
2024/03/05 10:20:36;;;;;;;11.90;6.18;;;8.40;99.90;;;;;;4995057;28;20121;-90
2024/03/05 10:23:15;;;;;;;9.45;4.72;;;8.80;99.90;;;;;;4994285;28;20482;-91
2024/03/05 10:25:40;;;;;;;13.98;4.85;;;9.10;99.90;;;;;;5012031;28;20033;-89
2024/03/05 10:28:08;;;;;;;14.20;5.05;;;9.30;99.90;;;;;;5012459;28;20034;-90
2024/03/05 10:30:36;;;;;;;11.05;5.25;;;9.40;99.90;;;;;;5012125;28;20025;-90
2024/03/05 10:33:07;;;;;;;13.73;4.50;;;9.50;99.90;;;;;;5005929;28;20020;-85
2024/03/05 10:35:33;;;;;;;8.23;3.85;;;9.60;99.90;;;;;;5031297;28;20549;-87
2024/03/05 10:38:00;;;;;;;16.60;4.28;;;9.70;99.90;;;;;;5012206;28;20034;-86
2024/03/05 10:40:31;;;;;;;11.88;3.92;;;9.80;99.90;;;;;;5005028;28;20018;-91
2024/03/05 10:43:00;;;;;;;9.77;3.83;;;9.80;99.90;;;;;;5016146;28;20030;-89
2024/03/05 10:45:29;;;;;;;12.23;3.80;;;9.90;99.90;;;;;;4998099;28;20037;-90
2024/03/05 10:47:59;;;;;;;12.13;3.67;;;10.00;99.90;;;;;;5014652;28;20029;-91
2024/03/05 10:50:26;;;;;;;13.10;3.33;;;10.20;99.90;;;;;;5014928;28;20033;-90
2024/03/05 10:52:54;;;;;;;13.65;4.00;;;10.50;99.90;;;;;;4995139;28;20031;-91
2024/03/05 10:55:22;;;;;;;10.63;3.28;;;10.70;99.90;;;;;;4995754;28;20022;-91
2024/03/05 11:00:37;;;;;;;11.50;3.30;;;10.80;99.90;;;;;;5012925;28;20032;-91
2024/03/05 11:03:10;;;;;;;10.52;3.28;;;10.90;99.90;;;;;;4995916;28;20049;-91
2024/03/05 11:05:56;;;;;;;9.30;2.88;;;11.10;99.90;;;;;;5013608;28;20073;-90
2024/03/05 11:08:25;;;;;;;13.10;3.22;;;11.50;99.90;;;;;;5016006;28;20038;-91
2024/03/05 11:11:07;;;;;;;11.32;3.03;;;12.00;99.90;;;;;;5016441;28;20017;-92
2024/03/05 11:13:35;;;;;;;14.93;3.00;;;12.40;99.90;;;;;;4998874;28;20021;-90
2024/03/05 11:16:03;;;;;;;17.50;3.03;;;12.80;99.90;;;;;;5004833;28;20026;-90
2024/03/05 11:18:33;;;;;;;12.77;3.33;;;13.20;99.90;;;;;;5025020;28;20089;-88
2024/03/05 11:21:09;;;;;;;14.82;3.25;;;13.50;99.90;;;;;;5020579;28;20022;-92
2024/03/05 11:23:50;;;;;;;10.40;2.83;;;13.70;99.90;;;;;;4979411;28;20031;-90
2024/03/05 11:26:22;;;;;;;13.25;3.33;;;13.80;99.90;;;;;;4977459;28;20109;-92
2024/03/05 11:28:56;;;;;;;11.10;3.03;;;14.00;99.90;;;;;;4976802;28;20031;-92
2024/03/05 11:31:27;;;;;;;15.52;3.47;;;14.30;99.90;;;;;;4976585;28;20030;-91
2024/03/05 11:34:02;;;;;;;13.70;3.10;;;14.60;99.90;;;;;;4977869;28;20050;-92
2024/03/05 11:36:30;;;;;;;17.98;3.97;;;14.70;99.90;;;;;;4975335;28;20026;-92
2024/03/05 11:39:06;;;;;;;12.13;3.88;;;14.60;99.90;;;;;;4972873;28;20023;-92
2024/03/05 11:41:36;;;;;;;16.35;4.65;;;14.60;99.90;;;;;;4972818;28;20031;-92
2024/03/05 11:44:02;;;;;;;18.30;4.63;;;14.70;99.90;;;;;;4973375;28;20174;-92
2024/03/05 11:46:44;;;;;;;11.80;4.35;;;14.90;99.90;;;;;;4976507;28;20023;-91
2024/03/05 11:49:11;;;;;;;14.82;6.05;;;15.10;99.90;;;;;;4975162;28;20027;-91
2024/03/05 11:51:41;;;;;;;16.20;5.80;;;15.40;99.90;;;;;;4971607;28;20034;-91
2024/03/05 11:54:08;;;;;;;;;;;15.50;98.50;;;;;;4973307;28;20042;-91
2024/03/05 11:56:39;;;;;;;13.63;5.93;;;15.60;97.80;;;;;;4973435;28;20397;-92
2024/03/05 11:59:05;;;;;;;19.02;6.05;;;15.60;97.30;;;;;;4989427;28;20026;-92
2024/03/05 12:01:31;;;;;;;20.00;4.78;;;15.50;96.40;;;;;;4974664;28;20031;-91
2024/03/05 12:04:08;;;;;;;18.58;4.55;;;15.40;95.90;;;;;;4974222;28;20039;-91
2024/03/05 12:06:34;;;;;;;18.05;4.07;;;15.40;94.80;;;;;;4974196;28;20058;-92
2024/03/05 12:09:20;;;;;;;12.27;3.47;;;15.40;94.80;;;;;;4976291;28;20045;-91
2024/03/05 12:12:10;;;;;;;18.08;5.50;;;15.50;94.20;;;;;;4974949;28;20031;-90
2024/03/05 12:14:53;;;;;;;16.73;3.92;;;15.60;93.50;;;;;;4971789;28;20031;-91
2024/03/05 12:17:20;;;;;;;13.93;3.63;;;15.60;92.90;;;;;;4975717;28;20023;-91
2024/03/05 12:20:04;;;;;;;17.50;3.78;;;15.60;92.50;;;;;;4971347;28;20082;-93
2024/03/05 12:22:29;;;;;;;25.15;4.97;;;15.40;91.80;;;;;;4984478;28;20038;-91
2024/03/05 12:24:55;;;;;;;17.23;3.30;;;15.10;91.60;;;;;;4994538;28;20030;-92
2024/03/05 12:27:21;;;;;;;15.27;3.40;;;14.80;91.70;;;;;;4995062;28;20038;-92
2024/03/05 12:29:47;;;;;;;18.92;4.35;;;14.40;91.70;;;;;;4996315;28;20019;-92
2024/03/05 12:32:18;;;;;;;15.27;3.85;;;14.00;91.80;;;;;;4995417;28;20081;-91
2024/03/05 12:34:43;;;;;;;16.80;3.38;;;13.80;92.00;;;;;;4994997;28;20022;-92
2024/03/05 12:37:13;;;;;;;17.95;3.65;;;13.60;92.20;;;;;;4997552;28;20032;-92
2024/03/05 12:39:40;;;;;;;17.70;3.97;;;13.40;92.30;;;;;;4996388;28;20023;-93
2024/03/05 12:42:13;;;;;;;15.23;3.50;;;13.30;92.60;;;;;;4996056;28;20583;-93
2024/03/05 12:44:39;;;;;;;16.90;4.47;;;13.20;93.10;;;;;;4995013;28;20022;-92
2024/03/05 12:47:10;;;;;;;15.90;4.10;;;13.30;93.50;;;;;;4997125;28;20092;-93
2024/03/05 12:49:40;;;;;;;;;;;13.60;93.70;;;;;;4996551;28;20065;-92
2024/03/05 12:52:07;;;;;;;24.38;4.53;;;14.10;93.00;;;;;;5003882;28;19981;-91
2024/03/05 12:54:33;;;;;;;14.07;3.67;;;14.50;92.60;;;;;;5009668;28;20037;-90
2024/03/05 12:56:58;;;;;;;15.68;3.80;;;14.90;91.80;;;;;;5002467;28;20280;-91
2024/03/05 12:59:25;;;;;;;16.02;3.25;;;15.30;90.70;;;;;;5000069;28;20010;-91